sensor_id;sensor_type;location;lat;lon;timestamp;P1;durP1;ratioP1;P2;durP2;ratioP2
15194;SDS011;7698;42.478;23.756;2022-12-07T00:01:22;21.75;;;15.82;;
15194;SDS011;7698;42.478;23.756;2022-12-07T00:03:51;20.13;;;14.27;;
15194;SDS011;7698;42.478;23.756;2022-12-07T00:06:22;18.80;;;14.65;;
15194;SDS011;7698;42.478;23.756;2022-12-07T00:08:49;20.48;;;13.13;;
15194;SDS011;7698;42.478;23.756;2022-12-07T00:11:16;17.85;;;14.25;;
15194;SDS011;7698;42.478;23.756;2022-12-07T00:13:46;18.83;;;14.48;;
15194;SDS011;7698;42.478;23.756;2022-12-07T00:16:14;23.50;;;17.05;;
15194;SDS011;7698;42.478;23.756;2022-12-07T00:18:42;21.00;;;15.75;;
15194;SDS011;7698;42.478;23.756;2022-12-07T00:21:10;25.47;;;16.90;;
15194;SDS011;7698;42.478;23.756;2022-12-07T00:23:38;22.52;;;16.40;;
15194;SDS011;7698;42.478;23.756;2022-12-07T00:26:06;21.00;;;14.95;;
15194;SDS011;7698;42.478;23.756;2022-12-07T00:28:34;27.27;;;15.88;;
15194;SDS011;7698;42.478;23.756;2022-12-07T00:31:04;22.00;;;14.85;;
15194;SDS011;7698;42.478;23.756;2022-12-07T00:33:32;24.00;;;17.23;;
15194;SDS011;7698;42.478;23.756;2022-12-07T00:35:59;22.20;;;15.73;;
15194;SDS011;7698;42.478;23.756;2022-12-07T00:38:27;20.58;;;14.98;;
15194;SDS011;7698;42.478;23.756;2022-12-07T00:40:56;20.23;;;15.05;;
15194;SDS011;7698;42.478;23.756;2022-12-07T00:43:24;23.27;;;16.40;;
15194;SDS011;7698;42.478;23.756;2022-12-07T00:45:51;18.80;;;14.52;;
15194;SDS011;7698;42.478;23.756;2022-12-07T00:48:20;22.15;;;15.55;;
15194;SDS011;7698;42.478;23.756;2022-12-07T00:50:47;19.05;;;15.23;;
15194;SDS011;7698;42.478;23.756;2022-12-07T00:53:15;22.77;;;15.32;;
15194;SDS011;7698;42.478;23.756;2022-12-07T00:55:42;22.40;;;15.02;;
15194;SDS011;7698;42.478;23.756;2022-12-07T00:58:10;24.77;;;17.10;;
15194;SDS011;7698;42.478;23.756;2022-12-07T01:00:37;24.00;;;17.05;;
15194;SDS011;7698;42.478;23.756;2022-12-07T01:03:06;22.37;;;16.00;;
15194;SDS011;7698;42.478;23.756;2022-12-07T01:05:36;22.05;;;15.95;;
15194;SDS011;7698;42.478;23.756;2022-12-07T01:08:03;22.70;;;15.82;;
15194;SDS011;7698;42.478;23.756;2022-12-07T01:10:31;25.00;;;16.50;;
15194;SDS011;7698;42.478;23.756;2022-12-07T01:12:58;24.75;;;17.80;;
15194;SDS011;7698;42.478;23.756;2022-12-07T01:15:25;25.27;;;18.88;;
15194;SDS011;7698;42.478;23.756;2022-12-07T01:17:52;24.75;;;16.13;;
15194;SDS011;7698;42.478;23.756;2022-12-07T01:20:20;25.77;;;17.80;;
15194;SDS011;7698;42.478;23.756;2022-12-07T01:22:48;23.07;;;17.60;;
15194;SDS011;7698;42.478;23.756;2022-12-07T01:25:15;21.23;;;15.53;;
15194;SDS011;7698;42.478;23.756;2022-12-07T01:27:42;22.83;;;15.93;;
15194;SDS011;7698;42.478;23.756;2022-12-07T01:30:09;25.47;;;16.03;;
15194;SDS011;7698;42.478;23.756;2022-12-07T01:32:37;24.80;;;15.88;;
15194;SDS011;7698;42.478;23.756;2022-12-07T01:35:04;22.20;;;15.32;;
15194;SDS011;7698;42.478;23.756;2022-12-07T01:37:33;19.52;;;14.13;;
15194;SDS011;7698;42.478;23.756;2022-12-07T01:40:03;23.40;;;16.05;;
15194;SDS011;7698;42.478;23.756;2022-12-07T01:42:31;20.95;;;15.15;;
15194;SDS011;7698;42.478;23.756;2022-12-07T01:48:03;20.98;;;14.63;;
15194;SDS011;7698;42.478;23.756;2022-12-07T01:50:31;21.70;;;15.50;;
15194;SDS011;7698;42.478;23.756;2022-12-07T01:52:58;20.37;;;15.43;;
15194;SDS011;7698;42.478;23.756;2022-12-07T01:55:29;23.48;;;14.68;;
15194;SDS011;7698;42.478;23.756;2022-12-07T01:57:56;22.20;;;15.25;;
15194;SDS011;7698;42.478;23.756;2022-12-07T02:00:24;22.07;;;15.43;;
15194;SDS011;7698;42.478;23.756;2022-12-07T02:02:52;22.08;;;13.77;;
15194;SDS011;7698;42.478;23.756;2022-12-07T02:05:22;23.23;;;15.68;;
15194;SDS011;7698;42.478;23.756;2022-12-07T02:07:50;24.55;;;16.15;;
15194;SDS011;7698;42.478;23.756;2022-12-07T02:10:21;24.17;;;14.88;;
15194;SDS011;7698;42.478;23.756;2022-12-07T02:12:51;22.15;;;15.55;;
15194;SDS011;7698;42.478;23.756;2022-12-07T02:15:21;22.17;;;14.67;;
15194;SDS011;7698;42.478;23.756;2022-12-07T02:17:54;20.47;;;15.07;;
15194;SDS011;7698;42.478;23.756;2022-12-07T02:20:28;19.25;;;14.35;;
15194;SDS011;7698;42.478;23.756;2022-12-07T02:23:15;22.67;;;14.00;;
15194;SDS011;7698;42.478;23.756;2022-12-07T02:26:16;21.02;;;14.68;;
15194;SDS011;7698;42.478;23.756;2022-12-07T02:29:16;23.02;;;16.80;;
15194;SDS011;7698;42.478;23.756;2022-12-07T02:31:50;25.23;;;17.27;;
15194;SDS011;7698;42.478;23.756;2022-12-07T02:34:32;19.40;;;14.60;;
15194;SDS011;7698;42.478;23.756;2022-12-07T02:37:07;27.30;;;16.85;;
15194;SDS011;7698;42.478;23.756;2022-12-07T02:39:42;23.87;;;16.40;;
15194;SDS011;7698;42.478;23.756;2022-12-07T02:42:15;26.33;;;17.90;;
15194;SDS011;7698;42.478;23.756;2022-12-07T02:44:47;24.60;;;15.33;;
15194;SDS011;7698;42.478;23.756;2022-12-07T02:47:14;27.00;;;17.20;;
15194;SDS011;7698;42.478;23.756;2022-12-07T02:49:43;23.13;;;15.85;;
15194;SDS011;7698;42.478;23.756;2022-12-07T02:52:11;22.87;;;15.83;;
15194;SDS011;7698;42.478;23.756;2022-12-07T02:54:38;25.02;;;17.55;;
15194;SDS011;7698;42.478;23.756;2022-12-07T02:57:08;25.57;;;17.87;;
15194;SDS011;7698;42.478;23.756;2022-12-07T02:59:49;25.30;;;16.90;;
15194;SDS011;7698;42.478;23.756;2022-12-07T03:02:28;24.15;;;17.02;;
15194;SDS011;7698;42.478;23.756;2022-12-07T03:08:05;23.00;;;16.33;;
15194;SDS011;7698;42.478;23.756;2022-12-07T03:10:40;27.85;;;18.27;;
15194;SDS011;7698;42.478;23.756;2022-12-07T03:13:16;26.57;;;16.97;;
15194;SDS011;7698;42.478;23.756;2022-12-07T03:15:51;25.13;;;18.23;;
15194;SDS011;7698;42.478;23.756;2022-12-07T03:18:22;22.45;;;15.70;;
15194;SDS011;7698;42.478;23.756;2022-12-07T03:20:53;23.55;;;16.27;;
15194;SDS011;7698;42.478;23.756;2022-12-07T03:23:24;23.77;;;17.10;;
15194;SDS011;7698;42.478;23.756;2022-12-07T03:25:53;26.83;;;17.73;;
15194;SDS011;7698;42.478;23.756;2022-12-07T03:28:25;21.77;;;16.55;;
15194;SDS011;7698;42.478;23.756;2022-12-07T03:30:57;22.73;;;17.45;;
15194;SDS011;7698;42.478;23.756;2022-12-07T03:33:28;23.83;;;16.90;;
15194;SDS011;7698;42.478;23.756;2022-12-07T03:35:59;27.38;;;16.67;;
15194;SDS011;7698;42.478;23.756;2022-12-07T03:38:32;29.00;;;18.15;;
15194;SDS011;7698;42.478;23.756;2022-12-07T03:41:04;22.70;;;16.20;;
15194;SDS011;7698;42.478;23.756;2022-12-07T03:43:34;24.25;;;16.48;;
15194;SDS011;7698;42.478;23.756;2022-12-07T03:46:05;22.42;;;16.48;;
15194;SDS011;7698;42.478;23.756;2022-12-07T03:48:40;25.70;;;17.33;;
15194;SDS011;7698;42.478;23.756;2022-12-07T03:51:11;21.83;;;14.73;;
15194;SDS011;7698;42.478;23.756;2022-12-07T03:53:46;20.30;;;13.73;;
15194;SDS011;7698;42.478;23.756;2022-12-07T03:56:17;18.48;;;13.20;;
15194;SDS011;7698;42.478;23.756;2022-12-07T03:58:45;19.83;;;14.50;;
15194;SDS011;7698;42.478;23.756;2022-12-07T04:01:14;19.75;;;13.30;;
15194;SDS011;7698;42.478;23.756;2022-12-07T04:03:41;15.03;;;12.60;;
15194;SDS011;7698;42.478;23.756;2022-12-07T04:06:07;17.10;;;13.27;;
15194;SDS011;7698;42.478;23.756;2022-12-07T04:08:34;19.63;;;13.32;;
15194;SDS011;7698;42.478;23.756;2022-12-07T04:11:01;19.17;;;13.23;;
15194;SDS011;7698;42.478;23.756;2022-12-07T04:13:28;16.70;;;13.40;;
15194;SDS011;7698;42.478;23.756;2022-12-07T04:16:16;18.00;;;13.70;;
15194;SDS011;7698;42.478;23.756;2022-12-07T04:18:43;20.23;;;14.68;;
15194;SDS011;7698;42.478;23.756;2022-12-07T04:21:10;22.20;;;16.00;;
15194;SDS011;7698;42.478;23.756;2022-12-07T04:23:37;20.53;;;14.93;;
15194;SDS011;7698;42.478;23.756;2022-12-07T04:26:03;19.10;;;13.38;;
15194;SDS011;7698;42.478;23.756;2022-12-07T04:28:30;19.48;;;15.15;;
15194;SDS011;7698;42.478;23.756;2022-12-07T04:30:57;20.25;;;13.93;;
15194;SDS011;7698;42.478;23.756;2022-12-07T04:33:25;20.98;;;14.75;;
15194;SDS011;7698;42.478;23.756;2022-12-07T04:35:52;20.17;;;14.60;;
15194;SDS011;7698;42.478;23.756;2022-12-07T04:38:19;18.30;;;13.60;;
15194;SDS011;7698;42.478;23.756;2022-12-07T04:40:46;21.52;;;16.02;;
15194;SDS011;7698;42.478;23.756;2022-12-07T04:43:13;21.25;;;16.65;;
15194;SDS011;7698;42.478;23.756;2022-12-07T04:45:39;22.10;;;17.17;;
15194;SDS011;7698;42.478;23.756;2022-12-07T04:48:11;21.77;;;14.97;;
15194;SDS011;7698;42.478;23.756;2022-12-07T04:50:39;22.13;;;16.23;;
15194;SDS011;7698;42.478;23.756;2022-12-07T04:53:06;22.63;;;16.90;;
15194;SDS011;7698;42.478;23.756;2022-12-07T04:55:32;25.60;;;16.15;;
15194;SDS011;7698;42.478;23.756;2022-12-07T04:57:59;26.47;;;17.00;;
15194;SDS011;7698;42.478;23.756;2022-12-07T05:00:26;22.70;;;16.03;;
15194;SDS011;7698;42.478;23.756;2022-12-07T05:02:53;20.35;;;14.20;;
15194;SDS011;7698;42.478;23.756;2022-12-07T05:05:20;20.07;;;13.33;;
15194;SDS011;7698;42.478;23.756;2022-12-07T05:07:48;15.98;;;11.52;;
15194;SDS011;7698;42.478;23.756;2022-12-07T05:10:15;17.30;;;12.77;;
15194;SDS011;7698;42.478;23.756;2022-12-07T05:12:42;18.30;;;12.48;;
15194;SDS011;7698;42.478;23.756;2022-12-07T05:15:09;22.15;;;15.13;;
15194;SDS011;7698;42.478;23.756;2022-12-07T05:17:36;22.63;;;15.40;;
15194;SDS011;7698;42.478;23.756;2022-12-07T05:20:03;19.65;;;12.93;;
15194;SDS011;7698;42.478;23.756;2022-12-07T05:22:31;18.98;;;14.02;;
15194;SDS011;7698;42.478;23.756;2022-12-07T05:24:59;19.55;;;13.82;;
15194;SDS011;7698;42.478;23.756;2022-12-07T05:27:26;19.60;;;14.80;;
15194;SDS011;7698;42.478;23.756;2022-12-07T05:29:53;15.67;;;12.20;;
15194;SDS011;7698;42.478;23.756;2022-12-07T05:32:20;18.17;;;13.83;;
15194;SDS011;7698;42.478;23.756;2022-12-07T05:34:47;19.67;;;12.70;;
15194;SDS011;7698;42.478;23.756;2022-12-07T05:37:13;19.55;;;13.25;;
15194;SDS011;7698;42.478;23.756;2022-12-07T05:39:40;19.30;;;13.23;;
15194;SDS011;7698;42.478;23.756;2022-12-07T05:42:09;20.15;;;12.88;;
15194;SDS011;7698;42.478;23.756;2022-12-07T05:44:38;19.35;;;12.55;;
15194;SDS011;7698;42.478;23.756;2022-12-07T05:47:05;16.40;;;12.03;;
15194;SDS011;7698;42.478;23.756;2022-12-07T05:49:32;18.38;;;12.80;;
15194;SDS011;7698;42.478;23.756;2022-12-07T05:51:59;15.48;;;12.27;;
15194;SDS011;7698;42.478;23.756;2022-12-07T05:54:26;17.98;;;12.18;;
15194;SDS011;7698;42.478;23.756;2022-12-07T05:56:53;19.90;;;14.70;;
15194;SDS011;7698;42.478;23.756;2022-12-07T05:59:21;16.42;;;11.73;;
15194;SDS011;7698;42.478;23.756;2022-12-07T06:01:51;16.85;;;13.20;;
15194;SDS011;7698;42.478;23.756;2022-12-07T06:04:19;20.10;;;14.98;;
15194;SDS011;7698;42.478;23.756;2022-12-07T06:06:47;27.42;;;18.38;;
15194;SDS011;7698;42.478;23.756;2022-12-07T06:09:14;23.17;;;15.88;;
15194;SDS011;7698;42.478;23.756;2022-12-07T06:11:41;20.38;;;14.20;;
15194;SDS011;7698;42.478;23.756;2022-12-07T06:14:26;17.63;;;13.10;;
15194;SDS011;7698;42.478;23.756;2022-12-07T06:16:53;18.95;;;12.48;;
15194;SDS011;7698;42.478;23.756;2022-12-07T06:19:20;17.77;;;12.35;;
15194;SDS011;7698;42.478;23.756;2022-12-07T06:21:47;18.90;;;12.23;;
15194;SDS011;7698;42.478;23.756;2022-12-07T06:24:14;18.83;;;13.40;;
15194;SDS011;7698;42.478;23.756;2022-12-07T06:26:41;19.48;;;12.68;;
15194;SDS011;7698;42.478;23.756;2022-12-07T06:29:09;17.67;;;13.23;;
15194;SDS011;7698;42.478;23.756;2022-12-07T06:31:38;24.63;;;12.73;;
15194;SDS011;7698;42.478;23.756;2022-12-07T06:34:05;17.80;;;13.20;;
15194;SDS011;7698;42.478;23.756;2022-12-07T06:36:34;15.13;;;12.35;;
15194;SDS011;7698;42.478;23.756;2022-12-07T06:39:01;15.00;;;11.57;;
15194;SDS011;7698;42.478;23.756;2022-12-07T06:41:29;18.70;;;13.15;;
15194;SDS011;7698;42.478;23.756;2022-12-07T06:43:56;18.98;;;13.93;;
15194;SDS011;7698;42.478;23.756;2022-12-07T06:46:23;21.45;;;13.45;;
15194;SDS011;7698;42.478;23.756;2022-12-07T06:48:51;19.73;;;14.60;;
15194;SDS011;7698;42.478;23.756;2022-12-07T06:51:18;24.80;;;15.35;;
15194;SDS011;7698;42.478;23.756;2022-12-07T06:53:45;20.75;;;15.85;;
15194;SDS011;7698;42.478;23.756;2022-12-07T06:56:12;21.83;;;16.80;;
15194;SDS011;7698;42.478;23.756;2022-12-07T06:58:39;22.40;;;17.10;;
15194;SDS011;7698;42.478;23.756;2022-12-07T07:01:08;20.85;;;15.10;;
15194;SDS011;7698;42.478;23.756;2022-12-07T07:03:36;21.27;;;15.60;;
15194;SDS011;7698;42.478;23.756;2022-12-07T07:06:05;22.98;;;17.27;;
15194;SDS011;7698;42.478;23.756;2022-12-07T07:08:32;26.85;;;17.15;;
15194;SDS011;7698;42.478;23.756;2022-12-07T07:10:59;20.75;;;15.45;;
15194;SDS011;7698;42.478;23.756;2022-12-07T07:13:27;22.55;;;17.27;;
15194;SDS011;7698;42.478;23.756;2022-12-07T07:15:54;21.08;;;16.02;;
15194;SDS011;7698;42.478;23.756;2022-12-07T07:18:21;22.75;;;15.68;;
15194;SDS011;7698;42.478;23.756;2022-12-07T07:20:49;18.45;;;14.55;;
15194;SDS011;7698;42.478;23.756;2022-12-07T07:23:18;21.38;;;14.25;;
15194;SDS011;7698;42.478;23.756;2022-12-07T07:25:45;17.25;;;13.35;;
15194;SDS011;7698;42.478;23.756;2022-12-07T07:28:12;19.15;;;14.13;;
15194;SDS011;7698;42.478;23.756;2022-12-07T07:30:39;19.90;;;14.82;;
15194;SDS011;7698;42.478;23.756;2022-12-07T07:33:06;18.15;;;13.40;;
15194;SDS011;7698;42.478;23.756;2022-12-07T07:35:34;18.00;;;13.40;;
15194;SDS011;7698;42.478;23.756;2022-12-07T07:38:01;19.25;;;14.00;;
15194;SDS011;7698;42.478;23.756;2022-12-07T07:40:29;16.63;;;13.43;;
15194;SDS011;7698;42.478;23.756;2022-12-07T07:42:56;16.17;;;13.32;;
15194;SDS011;7698;42.478;23.756;2022-12-07T07:45:24;18.98;;;14.32;;
15194;SDS011;7698;42.478;23.756;2022-12-07T07:47:52;14.65;;;11.68;;
15194;SDS011;7698;42.478;23.756;2022-12-07T07:50:19;15.63;;;11.32;;
15194;SDS011;7698;42.478;23.756;2022-12-07T07:52:46;14.93;;;11.48;;
15194;SDS011;7698;42.478;23.756;2022-12-07T07:55:14;13.38;;;10.63;;
15194;SDS011;7698;42.478;23.756;2022-12-07T07:57:42;14.05;;;10.65;;
15194;SDS011;7698;42.478;23.756;2022-12-07T08:00:10;14.88;;;13.05;;
15194;SDS011;7698;42.478;23.756;2022-12-07T08:02:38;16.08;;;12.85;;
15194;SDS011;7698;42.478;23.756;2022-12-07T08:05:06;16.10;;;13.18;;
15194;SDS011;7698;42.478;23.756;2022-12-07T08:07:33;17.70;;;13.85;;
15194;SDS011;7698;42.478;23.756;2022-12-07T08:10:00;16.55;;;13.27;;
15194;SDS011;7698;42.478;23.756;2022-12-07T08:12:27;20.80;;;15.18;;
15194;SDS011;7698;42.478;23.756;2022-12-07T08:14:55;20.75;;;15.23;;
15194;SDS011;7698;42.478;23.756;2022-12-07T08:17:22;20.85;;;16.02;;
15194;SDS011;7698;42.478;23.756;2022-12-07T08:19:49;16.23;;;14.15;;
15194;SDS011;7698;42.478;23.756;2022-12-07T08:22:16;19.20;;;16.02;;
15194;SDS011;7698;42.478;23.756;2022-12-07T08:24:44;17.60;;;15.73;;
15194;SDS011;7698;42.478;23.756;2022-12-07T08:27:10;20.98;;;18.02;;
15194;SDS011;7698;42.478;23.756;2022-12-07T08:29:37;21.17;;;17.35;;
15194;SDS011;7698;42.478;23.756;2022-12-07T08:32:05;19.25;;;16.35;;
15194;SDS011;7698;42.478;23.756;2022-12-07T08:34:32;18.05;;;15.70;;
15194;SDS011;7698;42.478;23.756;2022-12-07T08:36:59;17.92;;;13.55;;
15194;SDS011;7698;42.478;23.756;2022-12-07T08:39:26;18.67;;;13.48;;
15194;SDS011;7698;42.478;23.756;2022-12-07T08:41:53;14.45;;;12.13;;
15194;SDS011;7698;42.478;23.756;2022-12-07T08:44:20;12.48;;;10.45;;
15194;SDS011;7698;42.478;23.756;2022-12-07T08:46:47;12.32;;;10.93;;
15194;SDS011;7698;42.478;23.756;2022-12-07T08:49:20;12.25;;;10.52;;
15194;SDS011;7698;42.478;23.756;2022-12-07T08:51:51;11.48;;;9.55;;
15194;SDS011;7698;42.478;23.756;2022-12-07T08:54:18;14.38;;;10.77;;
15194;SDS011;7698;42.478;23.756;2022-12-07T08:56:46;14.82;;;11.23;;
15194;SDS011;7698;42.478;23.756;2022-12-07T08:59:16;18.20;;;11.80;;
15194;SDS011;7698;42.478;23.756;2022-12-07T09:01:44;16.70;;;12.77;;
15194;SDS011;7698;42.478;23.756;2022-12-07T09:04:11;16.88;;;12.57;;
15194;SDS011;7698;42.478;23.756;2022-12-07T09:06:39;13.48;;;11.25;;
15194;SDS011;7698;42.478;23.756;2022-12-07T09:09:06;18.85;;;14.45;;
15194;SDS011;7698;42.478;23.756;2022-12-07T09:11:35;18.50;;;13.07;;
15194;SDS011;7698;42.478;23.756;2022-12-07T09:14:02;15.43;;;12.80;;
15194;SDS011;7698;42.478;23.756;2022-12-07T09:16:29;17.45;;;13.50;;
15194;SDS011;7698;42.478;23.756;2022-12-07T09:18:56;16.35;;;13.18;;
15194;SDS011;7698;42.478;23.756;2022-12-07T09:21:22;14.70;;;10.77;;
15194;SDS011;7698;42.478;23.756;2022-12-07T09:23:51;16.02;;;12.30;;
15194;SDS011;7698;42.478;23.756;2022-12-07T09:26:17;17.52;;;12.18;;
15194;SDS011;7698;42.478;23.756;2022-12-07T09:28:44;13.90;;;12.50;;
15194;SDS011;7698;42.478;23.756;2022-12-07T09:31:11;17.02;;;13.80;;
15194;SDS011;7698;42.478;23.756;2022-12-07T09:33:38;14.60;;;13.02;;
15194;SDS011;7698;42.478;23.756;2022-12-07T09:36:06;13.73;;;12.23;;
15194;SDS011;7698;42.478;23.756;2022-12-07T09:38:34;14.20;;;12.70;;
15194;SDS011;7698;42.478;23.756;2022-12-07T09:41:05;13.95;;;12.48;;
15194;SDS011;7698;42.478;23.756;2022-12-07T09:43:33;15.70;;;12.43;;
15194;SDS011;7698;42.478;23.756;2022-12-07T09:46:01;15.52;;;12.18;;
15194;SDS011;7698;42.478;23.756;2022-12-07T09:48:30;12.85;;;11.50;;
15194;SDS011;7698;42.478;23.756;2022-12-07T09:50:59;15.52;;;13.10;;
15194;SDS011;7698;42.478;23.756;2022-12-07T09:53:28;18.75;;;13.82;;
15194;SDS011;7698;42.478;23.756;2022-12-07T09:55:59;16.70;;;12.50;;
15194;SDS011;7698;42.478;23.756;2022-12-07T09:58:29;14.93;;;11.60;;
15194;SDS011;7698;42.478;23.756;2022-12-07T10:00:58;16.60;;;12.70;;
15194;SDS011;7698;42.478;23.756;2022-12-07T10:03:27;17.38;;;13.45;;
15194;SDS011;7698;42.478;23.756;2022-12-07T10:05:55;14.05;;;12.55;;
15194;SDS011;7698;42.478;23.756;2022-12-07T10:08:24;12.55;;;11.25;;
15194;SDS011;7698;42.478;23.756;2022-12-07T10:10:52;14.48;;;11.70;;
15194;SDS011;7698;42.478;23.756;2022-12-07T10:13:22;14.65;;;12.23;;
15194;SDS011;7698;42.478;23.756;2022-12-07T10:16:02;13.70;;;12.13;;
15194;SDS011;7698;42.478;23.756;2022-12-07T10:18:31;13.70;;;11.43;;
15194;SDS011;7698;42.478;23.756;2022-12-07T10:21:04;17.08;;;13.18;;
15194;SDS011;7698;42.478;23.756;2022-12-07T10:23:37;15.40;;;13.77;;
15194;SDS011;7698;42.478;23.756;2022-12-07T10:26:21;14.80;;;13.20;;
15194;SDS011;7698;42.478;23.756;2022-12-07T10:28:55;18.52;;;14.10;;
15194;SDS011;7698;42.478;23.756;2022-12-07T10:31:24;16.25;;;13.90;;
15194;SDS011;7698;42.478;23.756;2022-12-07T10:33:52;17.20;;;15.38;;
15194;SDS011;7698;42.478;23.756;2022-12-07T10:36:22;17.33;;;15.52;;
15194;SDS011;7698;42.478;23.756;2022-12-07T10:38:51;19.27;;;14.38;;
15194;SDS011;7698;42.478;23.756;2022-12-07T10:41:19;14.60;;;12.20;;
15194;SDS011;7698;42.478;23.756;2022-12-07T10:43:47;15.80;;;12.30;;
15194;SDS011;7698;42.478;23.756;2022-12-07T10:49:14;12.55;;;11.27;;
15194;SDS011;7698;42.478;23.756;2022-12-07T10:51:53;12.02;;;10.73;;
15194;SDS011;7698;42.478;23.756;2022-12-07T10:54:29;11.20;;;10.02;;
15194;SDS011;7698;42.478;23.756;2022-12-07T11:00:09;13.65;;;10.40;;
15194;SDS011;7698;42.478;23.756;2022-12-07T11:02:48;12.52;;;10.35;;
15194;SDS011;7698;42.478;23.756;2022-12-07T11:05:34;11.35;;;10.00;;
15194;SDS011;7698;42.478;23.756;2022-12-07T11:08:10;14.02;;;11.02;;
15194;SDS011;7698;42.478;23.756;2022-12-07T11:10:45;13.93;;;11.20;;
15194;SDS011;7698;42.478;23.756;2022-12-07T11:13:22;12.18;;;10.55;;
15194;SDS011;7698;42.478;23.756;2022-12-07T11:15:57;15.43;;;10.95;;
15194;SDS011;7698;42.478;23.756;2022-12-07T11:18:36;12.73;;;10.07;;
15194;SDS011;7698;42.478;23.756;2022-12-07T11:21:14;10.50;;;9.43;;
15194;SDS011;7698;42.478;23.756;2022-12-07T11:23:51;12.25;;;8.68;;
15194;SDS011;7698;42.478;23.756;2022-12-07T11:26:27;11.27;;;8.77;;
15194;SDS011;7698;42.478;23.756;2022-12-07T11:29:09;9.90;;;8.27;;
15194;SDS011;7698;42.478;23.756;2022-12-07T11:31:51;9.95;;;7.97;;
15194;SDS011;7698;42.478;23.756;2022-12-07T11:34:30;9.15;;;7.68;;
15194;SDS011;7698;42.478;23.756;2022-12-07T11:37:09;11.75;;;7.43;;
15194;SDS011;7698;42.478;23.756;2022-12-07T11:39:41;10.02;;;8.18;;
15194;SDS011;7698;42.478;23.756;2022-12-07T11:42:13;8.40;;;7.38;;
15194;SDS011;7698;42.478;23.756;2022-12-07T11:44:45;10.15;;;8.80;;
15194;SDS011;7698;42.478;23.756;2022-12-07T11:47:17;15.73;;;7.97;;
15194;SDS011;7698;42.478;23.756;2022-12-07T11:49:51;8.95;;;7.30;;
15194;SDS011;7698;42.478;23.756;2022-12-07T11:52:22;8.68;;;7.03;;
15194;SDS011;7698;42.478;23.756;2022-12-07T11:54:53;8.05;;;6.97;;
15194;SDS011;7698;42.478;23.756;2022-12-07T11:57:24;10.02;;;7.50;;
15194;SDS011;7698;42.478;23.756;2022-12-07T11:59:56;8.43;;;7.28;;
15194;SDS011;7698;42.478;23.756;2022-12-07T12:02:28;9.57;;;7.15;;
15194;SDS011;7698;42.478;23.756;2022-12-07T12:05:05;10.68;;;9.00;;
15194;SDS011;7698;42.478;23.756;2022-12-07T12:07:39;11.73;;;7.70;;
15194;SDS011;7698;42.478;23.756;2022-12-07T12:10:14;11.18;;;8.07;;
15194;SDS011;7698;42.478;23.756;2022-12-07T12:12:50;8.52;;;7.60;;
15194;SDS011;7698;42.478;23.756;2022-12-07T12:15:32;13.82;;;8.93;;
15194;SDS011;7698;42.478;23.756;2022-12-07T12:18:15;8.82;;;7.88;;
15194;SDS011;7698;42.478;23.756;2022-12-07T12:20:58;10.88;;;8.82;;
15194;SDS011;7698;42.478;23.756;2022-12-07T12:23:33;10.40;;;8.30;;
15194;SDS011;7698;42.478;23.756;2022-12-07T12:26:05;13.52;;;8.90;;
15194;SDS011;7698;42.478;23.756;2022-12-07T12:28:36;10.63;;;9.52;;
15194;SDS011;7698;42.478;23.756;2022-12-07T12:31:07;8.75;;;7.78;;
15194;SDS011;7698;42.478;23.756;2022-12-07T12:33:38;9.27;;;7.75;;
15194;SDS011;7698;42.478;23.756;2022-12-07T12:36:27;8.65;;;7.65;;
15194;SDS011;7698;42.478;23.756;2022-12-07T12:39:11;10.57;;;7.32;;
15194;SDS011;7698;42.478;23.756;2022-12-07T12:41:58;8.82;;;7.25;;
15194;SDS011;7698;42.478;23.756;2022-12-07T12:44:41;10.73;;;6.93;;
15194;SDS011;7698;42.478;23.756;2022-12-07T12:50:21;11.15;;;7.55;;
15194;SDS011;7698;42.478;23.756;2022-12-07T12:52:56;9.70;;;7.75;;
15194;SDS011;7698;42.478;23.756;2022-12-07T12:58:42;10.60;;;7.70;;
15194;SDS011;7698;42.478;23.756;2022-12-07T13:07:02;10.98;;;8.45;;
15194;SDS011;7698;42.478;23.756;2022-12-07T13:09:31;12.07;;;9.20;;
15194;SDS011;7698;42.478;23.756;2022-12-07T13:12:02;12.63;;;8.77;;
15194;SDS011;7698;42.478;23.756;2022-12-07T13:14:51;14.50;;;8.70;;
15194;SDS011;7698;42.478;23.756;2022-12-07T13:23:18;14.52;;;9.63;;
15194;SDS011;7698;42.478;23.756;2022-12-07T13:29:05;11.60;;;10.15;;
15194;SDS011;7698;42.478;23.756;2022-12-07T13:31:37;11.02;;;9.32;;
15194;SDS011;7698;42.478;23.756;2022-12-07T13:34:28;11.60;;;9.95;;
15194;SDS011;7698;42.478;23.756;2022-12-07T13:36:56;14.82;;;10.32;;
15194;SDS011;7698;42.478;23.756;2022-12-07T13:39:24;12.13;;;10.82;;
15194;SDS011;7698;42.478;23.756;2022-12-07T13:41:54;14.30;;;10.93;;
15194;SDS011;7698;42.478;23.756;2022-12-07T13:44:22;18.10;;;13.20;;
15194;SDS011;7698;42.478;23.756;2022-12-07T13:46:52;16.40;;;14.70;;
15194;SDS011;7698;42.478;23.756;2022-12-07T13:49:27;15.35;;;11.93;;
15194;SDS011;7698;42.478;23.756;2022-12-07T13:52:08;14.90;;;13.40;;
15194;SDS011;7698;42.478;23.756;2022-12-07T13:54:43;17.85;;;12.65;;
15194;SDS011;7698;42.478;23.756;2022-12-07T13:57:12;18.98;;;12.40;;
15194;SDS011;7698;42.478;23.756;2022-12-07T13:59:39;15.00;;;11.45;;
15194;SDS011;7698;42.478;23.756;2022-12-07T14:02:16;14.60;;;12.23;;
15194;SDS011;7698;42.478;23.756;2022-12-07T14:04:46;12.25;;;10.88;;
15194;SDS011;7698;42.478;23.756;2022-12-07T14:07:23;13.30;;;11.10;;
15194;SDS011;7698;42.478;23.756;2022-12-07T14:09:58;13.52;;;10.30;;
15194;SDS011;7698;42.478;23.756;2022-12-07T14:12:28;16.17;;;12.57;;
15194;SDS011;7698;42.478;23.756;2022-12-07T14:14:55;14.15;;;11.38;;
15194;SDS011;7698;42.478;23.756;2022-12-07T14:17:24;14.02;;;11.57;;
15194;SDS011;7698;42.478;23.756;2022-12-07T14:19:53;12.02;;;9.80;;
15194;SDS011;7698;42.478;23.756;2022-12-07T14:22:26;13.70;;;10.50;;
15194;SDS011;7698;42.478;23.756;2022-12-07T14:24:59;13.05;;;10.35;;
15194;SDS011;7698;42.478;23.756;2022-12-07T14:27:31;13.98;;;10.70;;
15194;SDS011;7698;42.478;23.756;2022-12-07T14:30:01;12.25;;;10.90;;
15194;SDS011;7698;42.478;23.756;2022-12-07T14:32:29;11.98;;;9.85;;
15194;SDS011;7698;42.478;23.756;2022-12-07T14:34:57;11.05;;;9.95;;
15194;SDS011;7698;42.478;23.756;2022-12-07T14:37:27;9.68;;;8.77;;
15194;SDS011;7698;42.478;23.756;2022-12-07T14:39:54;11.55;;;9.98;;
15194;SDS011;7698;42.478;23.756;2022-12-07T14:42:22;11.43;;;9.35;;
15194;SDS011;7698;42.478;23.756;2022-12-07T14:44:52;9.77;;;8.77;;
15194;SDS011;7698;42.478;23.756;2022-12-07T14:47:19;12.95;;;9.75;;
15194;SDS011;7698;42.478;23.756;2022-12-07T14:49:46;9.80;;;8.68;;
15194;SDS011;7698;42.478;23.756;2022-12-07T14:52:14;11.13;;;9.45;;
15194;SDS011;7698;42.478;23.756;2022-12-07T14:54:43;12.63;;;9.00;;
15194;SDS011;7698;42.478;23.756;2022-12-07T14:57:10;11.30;;;8.82;;
15194;SDS011;7698;42.478;23.756;2022-12-07T14:59:37;8.82;;;7.93;;
15194;SDS011;7698;42.478;23.756;2022-12-07T15:02:06;15.82;;;9.82;;
15194;SDS011;7698;42.478;23.756;2022-12-07T15:04:35;11.27;;;9.65;;
15194;SDS011;7698;42.478;23.756;2022-12-07T15:07:03;9.68;;;8.68;;
15194;SDS011;7698;42.478;23.756;2022-12-07T15:09:31;9.45;;;8.50;;
15194;SDS011;7698;42.478;23.756;2022-12-07T15:11:58;13.50;;;10.95;;
15194;SDS011;7698;42.478;23.756;2022-12-07T15:14:25;11.75;;;10.05;;